createdAt,value
2023-01-10T00:00:51.306Z,1.00
2023-01-10T00:03:20.227Z,1.00
2023-01-10T00:05:52.078Z,1.00
2023-01-10T00:08:20.443Z,1.00
2023-01-10T00:10:49.494Z,1.00
2023-01-10T00:13:26.564Z,0.90
2023-01-10T00:15:55.535Z,0.80
2023-01-10T00:18:24.042Z,0.80
2023-01-10T00:20:53.622Z,0.70
2023-01-10T00:23:24.547Z,0.70
2023-01-10T00:25:52.708Z,0.70
2023-01-10T00:28:20.900Z,0.70
2023-01-10T00:30:50.522Z,0.80
2023-01-10T00:33:21.093Z,0.80
2023-01-10T00:35:49.430Z,0.90
2023-01-10T00:38:19.022Z,0.90
2023-01-10T00:40:47.557Z,1.00
2023-01-10T00:43:47.656Z,1.00
2023-01-10T00:46:18.506Z,1.10
2023-01-10T00:48:46.868Z,1.10
2023-01-10T00:51:15.086Z,1.10
2023-01-10T00:53:44.688Z,1.10
2023-01-10T00:56:13.019Z,1.10
2023-01-10T00:58:41.321Z,1.00
2023-01-10T01:01:11.916Z,1.00
2023-01-10T01:03:40.177Z,0.90
2023-01-10T01:06:09.079Z,0.90
2023-01-10T01:08:37.652Z,0.80
2023-01-10T01:11:07.431Z,0.80
2023-01-10T01:13:36.382Z,0.80
2023-01-10T01:16:04.796Z,0.80
2023-01-10T01:18:34.258Z,0.80
2023-01-10T01:21:03.779Z,0.80
2023-01-10T01:23:32.027Z,0.80
2023-01-10T01:26:00.390Z,0.90
2023-01-10T01:28:30.047Z,0.80
2023-01-10T01:30:58.215Z,0.90
2023-01-10T01:33:26.568Z,0.90
2023-01-10T01:35:54.836Z,0.90
2023-01-10T01:38:23.026Z,0.90
2023-01-10T01:40:51.274Z,0.90
2023-01-10T01:43:23.336Z,0.90
2023-01-10T01:45:53.270Z,0.90
2023-01-10T01:48:24.686Z,0.90
2023-01-10T01:50:55.298Z,0.90
2023-01-10T01:53:25.975Z,0.90
2023-01-10T01:55:56.270Z,0.90
2023-01-10T01:58:28.702Z,0.80
2023-01-10T02:00:59.079Z,0.90
2023-01-10T02:03:27.831Z,0.90
2023-01-10T02:05:56.438Z,0.90
2023-01-10T02:08:24.756Z,0.90
2023-01-10T02:10:54.609Z,0.90
2023-01-10T02:13:24.570Z,0.90
2023-01-10T02:15:52.835Z,1.00
2023-01-10T02:18:24.026Z,1.00
2023-01-10T02:21:15.941Z,1.00
2023-01-10T02:23:56.282Z,1.00
2023-01-10T02:26:48.354Z,1.00
2023-01-10T02:29:43.513Z,1.00
2023-01-10T02:32:18.809Z,1.00
2023-01-10T02:34:54.459Z,1.00
2023-01-10T02:37:27.192Z,1.00
2023-01-10T02:39:59.485Z,0.90
2023-01-10T02:42:31.461Z,1.00
2023-01-10T02:45:02.135Z,1.00
2023-01-10T02:47:37.361Z,1.00
2023-01-10T02:50:20.297Z,1.00
2023-01-10T02:52:48.575Z,1.00
2023-01-10T02:55:16.766Z,1.00
2023-01-10T02:57:51.101Z,1.00
2023-01-10T03:00:29.414Z,1.00
2023-01-10T03:03:06.363Z,1.10
2023-01-10T03:05:43.028Z,1.00
2023-01-10T03:08:17.294Z,1.10
2023-01-10T03:10:46.915Z,1.10
2023-01-10T03:13:17.878Z,1.00
2023-01-10T03:15:47.115Z,1.30
2023-01-10T03:18:19.345Z,1.00
2023-01-10T03:20:48.798Z,1.00
2023-01-10T03:23:18.021Z,1.10
2023-01-10T03:25:47.297Z,1.10
2023-01-10T03:28:17.983Z,1.10
2023-01-10T03:30:47.909Z,1.00
2023-01-10T03:33:20.101Z,1.00
2023-01-10T03:35:54.322Z,1.00
2023-01-10T03:38:26.432Z,1.00
2023-01-10T03:40:56.830Z,1.00
2023-01-10T03:43:47.351Z,1.00
2023-01-10T03:46:21.952Z,0.90
2023-01-10T03:48:51.670Z,0.90
2023-01-10T03:51:20.181Z,0.80
2023-01-10T03:53:48.491Z,0.80
2023-01-10T03:56:17.247Z,0.80
2023-01-10T03:58:45.418Z,0.90
2023-01-10T04:01:16.473Z,0.90
2023-01-10T04:03:44.718Z,0.90
2023-01-10T04:06:14.402Z,0.90
2023-01-10T04:08:42.501Z,1.00
2023-01-10T04:11:10.663Z,1.00
2023-01-10T04:13:42.725Z,1.00
2023-01-10T04:16:13.109Z,1.00
2023-01-10T04:18:41.400Z,1.00
2023-01-10T04:21:11.926Z,1.00
2023-01-10T04:23:41.544Z,0.90
2023-01-10T04:26:09.857Z,0.90
2023-01-10T04:28:38.091Z,0.90
2023-01-10T04:31:06.351Z,0.90
2023-01-10T04:33:34.701Z,0.90
2023-01-10T04:36:02.871Z,0.90
2023-01-10T09:55:24.889Z,1.90
2023-01-10T09:57:54.259Z,1.90
2023-01-10T10:00:24.444Z,1.80
2023-01-10T10:02:54.011Z,1.80
2023-01-10T10:05:23.337Z,1.80
2023-01-10T10:07:55.937Z,1.80
2023-01-10T10:10:26.478Z,1.80
2023-01-10T10:13:11.633Z,1.80
2023-01-10T10:15:45.989Z,1.80
2023-01-10T10:18:19.292Z,1.80
2023-01-10T10:20:51.651Z,1.80
2023-01-10T10:23:32.181Z,1.80
2023-01-10T10:26:07.092Z,1.80
2023-01-10T10:28:56.014Z,1.90
2023-01-10T10:31:34.447Z,1.90
2023-01-10T10:34:06.388Z,1.90
2023-01-10T10:36:39.148Z,2.00
2023-01-10T10:39:08.071Z,1.90
2023-01-10T10:41:42.236Z,2.00
2023-01-10T10:44:21.502Z,1.90
2023-01-10T10:46:49.824Z,1.90
2023-01-10T10:49:21.218Z,1.90
2023-01-10T10:51:51.979Z,1.90
2023-01-10T10:54:21.724Z,1.90
2023-01-10T10:56:55.245Z,1.90
2023-01-10T10:59:23.514Z,1.90
2023-01-10T11:01:52.241Z,1.90
2023-01-10T11:04:23.296Z,1.90
2023-01-10T11:06:51.882Z,1.90
2023-01-10T11:09:22.289Z,1.90
2023-01-10T11:11:54.376Z,1.90
2023-01-10T11:14:37.523Z,1.90
2023-01-10T11:17:19.350Z,1.90
2023-01-10T11:19:56.197Z,1.90
2023-01-10T11:22:24.983Z,1.90
2023-01-10T11:24:54.777Z,1.90
2023-01-10T11:27:25.425Z,1.90
2023-01-10T11:29:56.281Z,1.90
2023-01-10T11:32:28.941Z,1.90
2023-01-10T11:34:59.795Z,1.90
2023-01-10T11:37:29.433Z,1.90
2023-01-10T11:40:18.522Z,1.90
2023-01-10T11:42:48.478Z,1.90
2023-01-10T11:45:23.183Z,2.00
2023-01-10T11:47:54.576Z,1.90
2023-01-10T11:50:24.006Z,1.90
2023-01-10T11:52:53.939Z,1.90
2023-01-10T11:55:23.047Z,1.90
2023-01-10T11:58:03.960Z,1.90
2023-01-10T12:00:33.528Z,1.90
2023-01-10T12:03:02.628Z,1.90
2023-01-10T12:05:31.008Z,1.90
2023-01-10T12:07:59.888Z,1.80
2023-01-10T12:10:29.511Z,1.80
2023-01-10T12:12:58.801Z,1.80
2023-01-10T12:15:30.146Z,1.80
2023-01-10T12:18:01.419Z,1.80
2023-01-10T12:20:30.804Z,1.80
2023-01-10T12:23:00.940Z,1.80
2023-01-10T12:25:32.484Z,1.80
2023-01-10T12:28:01.738Z,1.70
2023-01-10T12:30:34.102Z,1.80
2023-01-10T12:33:04.410Z,1.80
2023-01-10T12:35:43.921Z,1.80
2023-01-10T12:38:22.639Z,1.70
2023-01-10T12:40:53.182Z,1.70
2023-01-10T12:43:40.471Z,1.70
2023-01-10T12:46:28.127Z,1.70
2023-01-10T12:49:03.524Z,1.70
2023-01-10T12:51:32.065Z,1.70
2023-01-10T12:54:03.641Z,1.70
2023-01-10T12:56:32.300Z,1.70
2023-01-10T12:59:02.329Z,1.70
2023-01-10T13:01:33.123Z,1.70
2023-01-10T13:04:07.247Z,1.70
2023-01-10T13:06:36.494Z,1.70
2023-01-10T13:09:06.999Z,1.70
2023-01-10T13:11:39.228Z,1.70
2023-01-10T13:14:08.113Z,1.70
2023-01-10T13:16:44.429Z,1.70
2023-01-10T13:19:24.632Z,1.70
2023-01-10T13:22:13.890Z,1.70
2023-01-10T13:24:42.629Z,1.80
2023-01-10T13:27:20.109Z,1.80
2023-01-10T13:29:49.364Z,1.80
2023-01-10T13:32:21.299Z,1.80
2023-01-10T13:34:57.180Z,1.80
2023-01-10T13:37:27.035Z,1.80
2023-01-10T13:39:56.070Z,1.80
2023-01-10T13:42:43.985Z,1.80
2023-01-10T13:45:22.350Z,1.80
2023-01-10T13:48:02.416Z,1.80
2023-01-10T13:50:49.038Z,1.90
2023-01-10T13:53:35.618Z,1.90
2023-01-10T13:56:03.765Z,1.90
2023-01-10T13:58:59.938Z,1.90
2023-01-10T14:01:46.758Z,1.90
2023-01-10T14:04:23.667Z,1.90
2023-01-10T14:06:56.344Z,1.90
2023-01-10T14:09:38.150Z,2.00
2023-01-10T14:12:08.637Z,2.00
2023-01-10T14:14:39.481Z,2.00
2023-01-10T14:17:15.996Z,2.00
2023-01-10T14:19:47.089Z,2.10
2023-01-10T14:22:29.459Z,2.00
2023-01-10T14:24:58.325Z,2.10
2023-01-10T14:27:26.883Z,2.00
2023-01-10T14:29:59.556Z,2.10
2023-01-10T14:32:32.479Z,2.10
2023-01-10T14:35:04.774Z,2.10
2023-01-10T14:37:37.511Z,2.10
2023-01-10T14:40:07.110Z,2.10
2023-01-10T14:42:36.446Z,2.10
2023-01-10T14:45:10.224Z,2.10
2023-01-10T14:47:39.360Z,2.10
2023-01-10T14:50:22.546Z,2.10
2023-01-10T14:52:52.200Z,2.10
2023-01-10T14:55:21.675Z,2.10
2023-01-10T14:57:57.167Z,2.10
2023-01-10T15:00:29.324Z,2.10
2023-01-10T15:02:59.182Z,2.20
2023-01-10T15:05:28.041Z,2.10
2023-01-10T15:08:16.009Z,2.10
2023-01-10T15:10:47.240Z,2.10
2023-01-10T15:13:19.332Z,2.10
2023-01-10T15:15:48.330Z,2.10
2023-01-10T15:18:25.664Z,2.10
2023-01-10T15:20:54.331Z,2.20
2023-01-10T15:23:27.308Z,2.20
2023-01-10T15:25:58.296Z,2.10
2023-01-10T15:28:28.299Z,2.10
2023-01-10T15:30:58.374Z,2.20
2023-01-10T15:33:29.285Z,2.20
2023-01-10T15:35:58.147Z,2.20
2023-01-10T15:38:30.455Z,2.20
2023-01-10T15:41:01.962Z,2.20
2023-01-10T15:43:31.100Z,2.20
2023-01-10T15:45:59.802Z,2.20
2023-01-10T15:48:29.595Z,2.20
2023-01-10T15:50:59.827Z,2.20
2023-01-10T15:53:46.438Z,2.20
2023-01-10T15:56:19.330Z,2.20
2023-01-10T15:58:48.148Z,2.20
2023-01-10T16:01:17.100Z,2.20
2023-01-10T16:03:46.743Z,2.20
2023-01-10T16:06:26.311Z,2.20
2023-01-10T16:08:55.764Z,2.20
2023-01-10T16:11:45.859Z,2.20
2023-01-10T16:14:13.990Z,2.20
2023-01-10T16:16:42.226Z,2.20
2023-01-10T16:19:10.431Z,2.20
2023-01-10T16:21:40.958Z,2.20
2023-01-10T16:24:15.882Z,2.20
2023-01-10T16:26:45.581Z,2.20
2023-01-10T16:29:13.898Z,2.20
2023-01-10T16:31:42.212Z,2.20
2023-01-10T16:34:10.643Z,2.20
2023-01-10T16:36:38.895Z,2.20
2023-01-10T16:39:09.688Z,2.20
2023-01-10T16:41:55.414Z,2.20
2023-01-10T16:44:25.167Z,2.20
2023-01-10T16:46:54.298Z,2.20
2023-01-10T16:49:25.579Z,2.20
2023-01-10T16:51:54.146Z,2.20
2023-01-10T16:54:27.914Z,2.20
2023-01-10T16:56:56.175Z,2.10
2023-01-10T16:59:25.806Z,2.20
2023-01-10T17:01:55.668Z,2.10
2023-01-10T17:04:24.796Z,2.10
2023-01-10T17:06:52.954Z,2.10
2023-01-10T17:09:23.818Z,2.10
2023-01-10T17:11:56.681Z,2.20
2023-01-10T17:14:28.686Z,2.20
2023-01-10T17:16:59.825Z,2.10
2023-01-10T17:19:28.149Z,2.20
2023-01-10T17:21:56.271Z,2.10
2023-01-10T17:24:24.589Z,2.10
2023-01-10T17:26:52.951Z,2.20
2023-01-10T17:29:23.228Z,2.20
2023-01-10T17:31:53.098Z,2.20
2023-01-10T17:34:21.409Z,2.20
2023-01-10T17:36:49.544Z,2.20
2023-01-10T17:39:17.730Z,2.30
2023-01-10T17:41:46.041Z,2.30
2023-01-10T17:44:14.194Z,2.30
2023-01-10T17:46:42.366Z,2.30
2023-01-10T17:49:13.453Z,2.30
2023-01-10T17:51:41.930Z,2.30
2023-01-10T17:54:10.084Z,2.30
2023-01-10T17:56:38.235Z,2.30
2023-01-10T17:59:06.536Z,2.20
2023-01-10T18:01:34.825Z,2.30
2023-01-10T18:04:03.081Z,2.30
2023-01-10T18:06:32.695Z,2.20
2023-01-10T18:09:01.443Z,2.20
2023-01-10T18:11:31.675Z,2.30
2023-01-10T18:13:59.898Z,2.30
2023-01-10T18:16:31.022Z,2.20
2023-01-10T18:18:59.457Z,2.20
2023-01-10T18:21:27.656Z,2.20
2023-01-10T18:24:01.848Z,2.20
2023-01-10T18:26:30.144Z,2.20
2023-01-10T18:28:58.250Z,2.20
2023-01-10T18:31:26.628Z,2.30
2023-01-10T18:33:56.362Z,2.20
2023-01-10T18:36:25.545Z,2.30
2023-01-10T18:38:53.732Z,2.30
2023-01-10T18:41:23.438Z,2.40
2023-01-10T18:43:51.547Z,2.40
2023-01-10T18:46:20.657Z,2.30
2023-01-10T18:48:50.069Z,2.30
2023-01-10T18:51:19.313Z,2.30
2023-01-10T18:53:49.159Z,2.40
2023-01-10T18:56:17.399Z,2.40
2023-01-10T18:58:47.010Z,2.40
2023-01-10T19:01:16.043Z,2.40
2023-01-10T19:03:44.431Z,2.50
2023-01-10T19:06:14.647Z,2.40
2023-01-10T19:08:43.184Z,2.50
2023-01-10T19:11:14.593Z,2.40
2023-01-10T19:13:43.407Z,2.50
2023-01-10T19:16:14.474Z,2.40
2023-01-10T19:18:42.955Z,2.50
2023-01-10T19:21:15.625Z,2.50
2023-01-10T19:23:44.100Z,2.50
2023-01-10T19:26:12.829Z,2.50
2023-01-10T19:28:41.055Z,2.50
2023-01-10T19:31:09.495Z,2.50
2023-01-10T19:33:40.887Z,2.50
2023-01-10T19:36:09.389Z,2.50
2023-01-10T19:38:37.918Z,2.60
2023-01-10T19:41:07.054Z,2.50
2023-01-10T19:43:35.519Z,2.50
2023-01-10T19:46:06.444Z,2.50
2023-01-10T19:48:38.198Z,2.50
2023-01-10T19:51:09.362Z,2.40
2023-01-10T19:53:38.049Z,2.40
2023-01-10T19:56:09.868Z,2.40
2023-01-10T19:58:38.648Z,2.30
2023-01-10T20:01:10.917Z,2.30
2023-01-10T20:03:42.408Z,2.20
2023-01-10T20:06:14.327Z,2.10
2023-01-10T20:08:42.812Z,2.10
2023-01-10T20:11:11.111Z,2.10
2023-01-10T20:13:40.195Z,2.00
2023-01-10T20:16:08.702Z,1.90
2023-01-10T20:18:37.124Z,1.90
2023-01-10T20:21:06.669Z,1.90
2023-01-10T20:23:36.554Z,1.90
2023-01-10T20:26:06.364Z,1.90
2023-01-10T20:28:34.981Z,1.80
2023-01-10T20:31:03.885Z,1.90
2023-01-10T20:33:34.499Z,1.80
2023-01-10T20:36:04.408Z,1.80
2023-01-10T20:38:33.322Z,1.80
2023-01-10T20:41:04.840Z,1.80
2023-01-10T20:43:33.419Z,1.80
2023-01-10T20:46:05.483Z,1.80
2023-01-10T20:48:33.753Z,1.70
2023-01-10T20:51:02.118Z,1.70
2023-01-10T20:53:30.678Z,1.70
2023-01-10T20:56:04.321Z,1.70
2023-01-10T20:58:33.093Z,1.70
2023-01-10T21:01:01.291Z,1.70
2023-01-10T21:03:29.506Z,1.70
2023-01-10T21:05:58.740Z,1.80
2023-01-10T21:08:27.267Z,1.80
2023-01-10T21:10:55.385Z,1.80
2023-01-10T21:13:25.086Z,1.90
2023-01-10T21:15:54.264Z,2.00
2023-01-10T21:18:26.018Z,2.00
2023-01-10T21:20:55.851Z,2.10
2023-01-10T21:23:24.708Z,2.10
2023-01-10T21:25:53.370Z,2.10
2023-01-10T21:28:21.999Z,2.20
2023-01-10T21:30:54.137Z,2.20
2023-01-10T21:33:22.336Z,2.30
2023-01-10T21:35:53.949Z,2.30
2023-01-10T21:38:22.550Z,2.30
2023-01-10T21:40:50.911Z,2.30
2023-01-10T21:43:19.058Z,2.20
2023-01-10T21:45:47.329Z,2.20
2023-01-10T21:48:17.004Z,2.30
2023-01-10T21:50:52.147Z,2.30
2023-01-10T21:53:20.663Z,3.00
2023-01-10T21:55:49.038Z,2.40
2023-01-10T21:58:17.131Z,2.50
2023-01-10T22:00:45.384Z,2.50
2023-01-10T22:03:13.671Z,2.60
2023-01-10T22:05:43.676Z,2.60
2023-01-10T22:08:11.849Z,2.70
2023-01-10T22:10:40.147Z,2.80
2023-01-10T22:13:08.278Z,2.80
2023-01-10T22:15:37.957Z,2.80
2023-01-10T22:18:06.300Z,2.80
2023-01-10T22:20:34.446Z,2.90
2023-01-10T22:23:03.971Z,2.90
2023-01-10T22:25:32.170Z,2.80
2023-01-10T22:28:00.302Z,2.80
2023-01-10T22:30:28.461Z,2.80
2023-01-10T22:32:57.497Z,2.80
2023-01-10T22:35:27.313Z,2.80
2023-01-10T22:37:56.731Z,2.80
2023-01-10T22:40:26.520Z,2.80
2023-01-10T22:42:54.939Z,2.80
2023-01-10T22:45:23.037Z,2.80
2023-01-10T22:47:51.588Z,2.90
2023-01-10T22:50:19.922Z,2.90
2023-01-10T22:52:49.051Z,2.90
2023-01-10T22:55:17.358Z,2.90
2023-01-10T22:57:47.634Z,3.00
2023-01-10T23:00:16.540Z,3.00
2023-01-10T23:02:44.787Z,2.90
2023-01-10T23:05:12.937Z,3.00
2023-01-10T23:07:41.177Z,3.00
2023-01-10T23:10:24.393Z,3.00
2023-01-10T23:12:58.807Z,3.00
2023-01-10T23:15:26.949Z,3.00
2023-01-10T23:17:55.108Z,3.00
2023-01-10T23:20:25.751Z,3.00
2023-01-10T23:22:53.862Z,3.00
2023-01-10T23:25:22.066Z,3.00
2023-01-10T23:27:50.444Z,3.00
2023-01-10T23:30:21.592Z,3.00
2023-01-10T23:32:51.378Z,3.00
2023-01-10T23:35:19.500Z,3.00
2023-01-10T23:37:47.688Z,3.00
2023-01-10T23:40:16.078Z,3.00
2023-01-10T23:42:44.175Z,3.00
2023-01-10T23:45:12.532Z,3.00
2023-01-10T23:47:42.102Z,3.00
2023-01-10T23:50:10.871Z,3.10
2023-01-10T23:52:39.146Z,3.10
2023-01-10T23:55:07.931Z,3.10
2023-01-10T23:57:36.029Z,3.10
